sensor_id;sensor_type;location;lat;lon;timestamp;temperature;humidity
16060;DHT22;8134;49.552;7.632;2022-08-23T10:06:34;22.60;74.80
16060;DHT22;8134;49.552;7.632;2022-08-23T10:09:00;22.70;74.50
16060;DHT22;8134;49.552;7.632;2022-08-23T10:11:40;22.80;73.10
16060;DHT22;8134;49.552;7.632;2022-08-23T10:14:10;23.10;73.00
16060;DHT22;8134;49.552;7.632;2022-08-23T10:22:00;23.80;70.30
16060;DHT22;8134;49.552;7.632;2022-08-23T10:27:13;24.40;67.20
16060;DHT22;8134;49.552;7.632;2022-08-23T10:32:49;24.70;66.60
16060;DHT22;8134;49.552;7.632;2022-08-23T10:38:15;24.90;67.30
16060;DHT22;8134;49.552;7.632;2022-08-23T10:43:23;24.70;65.00
16060;DHT22;8134;49.552;7.632;2022-08-23T10:45:54;24.80;66.20
16060;DHT22;8134;49.552;7.632;2022-08-23T10:48:23;24.90;64.60
16060;DHT22;8134;49.552;7.632;2022-08-23T10:51:39;25.00;65.90
16060;DHT22;8134;49.552;7.632;2022-08-23T10:53:48;25.00;66.30
16060;DHT22;8134;49.552;7.632;2022-08-23T10:56:21;25.10;64.50
16060;DHT22;8134;49.552;7.632;2022-08-23T11:01:24;25.30;66.30
16060;DHT22;8134;49.552;7.632;2022-08-23T11:03:58;25.30;67.30
16060;DHT22;8134;49.552;7.632;2022-08-23T11:09:02;25.50;65.30
16060;DHT22;8134;49.552;7.632;2022-08-23T11:11:39;25.60;65.10
16060;DHT22;8134;49.552;7.632;2022-08-23T11:14:06;25.60;66.10
16060;DHT22;8134;49.552;7.632;2022-08-23T11:16:32;25.60;64.10
16060;DHT22;8134;49.552;7.632;2022-08-23T11:18:59;25.70;65.30
16060;DHT22;8134;49.552;7.632;2022-08-23T11:28:48;25.80;63.30
16060;DHT22;8134;49.552;7.632;2022-08-23T11:31:19;26.00;64.50
16060;DHT22;8134;49.552;7.632;2022-08-23T11:33:58;26.10;64.40
16060;DHT22;8134;49.552;7.632;2022-08-23T11:45:03;26.70;60.70
16060;DHT22;8134;49.552;7.632;2022-08-23T11:47:44;26.70;61.70
16060;DHT22;8134;49.552;7.632;2022-08-23T11:50:25;26.80;62.00
16060;DHT22;8134;49.552;7.632;2022-08-23T11:58:45;27.00;60.50
16060;DHT22;8134;49.552;7.632;2022-08-23T12:01:17;27.10;59.70
16060;DHT22;8134;49.552;7.632;2022-08-23T12:18:15;27.50;58.30
16060;DHT22;8134;49.552;7.632;2022-08-23T12:20:41;27.70;58.30
16060;DHT22;8134;49.552;7.632;2022-08-23T12:23:12;27.80;59.30
16060;DHT22;8134;49.552;7.632;2022-08-23T12:25:38;27.90;59.70
16060;DHT22;8134;49.552;7.632;2022-08-23T12:39:18;28.30;58.70
16060;DHT22;8134;49.552;7.632;2022-08-23T12:41:52;28.30;57.70
16060;DHT22;8134;49.552;7.632;2022-08-23T12:44:23;28.30;58.20
16060;DHT22;8134;49.552;7.632;2022-08-23T12:46:56;28.30;58.20
16060;DHT22;8134;49.552;7.632;2022-08-23T12:49:56;28.40;56.00
16060;DHT22;8134;49.552;7.632;2022-08-23T12:52:32;28.50;57.60
16060;DHT22;8134;49.552;7.632;2022-08-23T12:55:12;28.60;57.40
16060;DHT22;8134;49.552;7.632;2022-08-23T12:57:45;28.80;58.00
16060;DHT22;8134;49.552;7.632;2022-08-23T13:04:33;28.90;54.90
16060;DHT22;8134;49.552;7.632;2022-08-23T13:41:59;28.50;56.80
16060;DHT22;8134;49.552;7.632;2022-08-23T13:44:25;28.30;56.70
16060;DHT22;8134;49.552;7.632;2022-08-23T13:46:50;28.20;56.70
16060;DHT22;8134;49.552;7.632;2022-08-23T14:01:31;29.40;52.90
16060;DHT22;8134;49.552;7.632;2022-08-23T14:03:57;29.60;52.60
16060;DHT22;8134;49.552;7.632;2022-08-23T14:06:22;29.70;51.40
16060;DHT22;8134;49.552;7.632;2022-08-23T14:15:00;30.30;53.30
16060;DHT22;8134;49.552;7.632;2022-08-23T14:17:27;30.40;52.60
16060;DHT22;8134;49.552;7.632;2022-08-23T14:20:01;30.50;52.60
16060;DHT22;8134;49.552;7.632;2022-08-23T14:22:28;30.60;51.60
16060;DHT22;8134;49.552;7.632;2022-08-23T14:25:10;30.60;51.80
16060;DHT22;8134;49.552;7.632;2022-08-23T14:39:38;30.60;51.00
16060;DHT22;8134;49.552;7.632;2022-08-23T15:00:33;31.00;49.20
16060;DHT22;8134;49.552;7.632;2022-08-23T15:15:32;31.40;51.10
16060;DHT22;8134;49.552;7.632;2022-08-23T15:18:03;31.60;50.50
16060;DHT22;8134;49.552;7.632;2022-08-23T15:21:06;31.60;50.80
16060;DHT22;8134;49.552;7.632;2022-08-23T15:23:55;31.70;51.90
16060;DHT22;8134;49.552;7.632;2022-08-23T15:26:47;31.70;51.00
16060;DHT22;8134;49.552;7.632;2022-08-23T15:29:25;31.60;51.20
16060;DHT22;8134;49.552;7.632;2022-08-23T15:31:54;31.60;51.00
16060;DHT22;8134;49.552;7.632;2022-08-23T15:34:24;31.70;50.90
16060;DHT22;8134;49.552;7.632;2022-08-23T15:37:07;31.60;51.20
16060;DHT22;8134;49.552;7.632;2022-08-23T15:42:55;31.70;50.40
16060;DHT22;8134;49.552;7.632;2022-08-23T15:45:21;31.70;50.80
16060;DHT22;8134;49.552;7.632;2022-08-23T15:47:47;31.50;51.00
16060;DHT22;8134;49.552;7.632;2022-08-23T15:50:13;31.40;51.50
16060;DHT22;8134;49.552;7.632;2022-08-23T15:52:39;31.30;51.60
16060;DHT22;8134;49.552;7.632;2022-08-23T15:55:05;31.30;51.80
16060;DHT22;8134;49.552;7.632;2022-08-23T15:57:30;31.50;51.40
16060;DHT22;8134;49.552;7.632;2022-08-23T15:59:58;31.60;51.30
16060;DHT22;8134;49.552;7.632;2022-08-23T16:02:24;31.80;51.10
16060;DHT22;8134;49.552;7.632;2022-08-23T16:04:49;31.70;51.60
16060;DHT22;8134;49.552;7.632;2022-08-23T16:07:15;31.70;51.10
16060;DHT22;8134;49.552;7.632;2022-08-23T16:09:42;31.60;51.10
16060;DHT22;8134;49.552;7.632;2022-08-23T16:12:07;31.60;51.70
16060;DHT22;8134;49.552;7.632;2022-08-23T16:14:33;31.70;51.70
16060;DHT22;8134;49.552;7.632;2022-08-23T16:16:59;31.70;50.50
16060;DHT22;8134;49.552;7.632;2022-08-23T16:19:25;31.80;51.20
16060;DHT22;8134;49.552;7.632;2022-08-23T16:21:50;31.80;50.50
16060;DHT22;8134;49.552;7.632;2022-08-23T16:24:18;31.70;50.60
16060;DHT22;8134;49.552;7.632;2022-08-23T16:26:44;31.80;51.40
16060;DHT22;8134;49.552;7.632;2022-08-23T16:29:10;31.70;51.10
16060;DHT22;8134;49.552;7.632;2022-08-23T16:31:38;31.70;51.30
16060;DHT22;8134;49.552;7.632;2022-08-23T16:34:04;31.60;50.40
16060;DHT22;8134;49.552;7.632;2022-08-23T16:36:32;31.60;51.80
16060;DHT22;8134;49.552;7.632;2022-08-23T16:38:58;31.60;51.50
16060;DHT22;8134;49.552;7.632;2022-08-23T16:41:23;31.50;51.70
16060;DHT22;8134;49.552;7.632;2022-08-23T16:43:49;31.40;51.70
16060;DHT22;8134;49.552;7.632;2022-08-23T16:46:19;31.40;52.20
16060;DHT22;8134;49.552;7.632;2022-08-23T16:49:28;31.30;51.60
16060;DHT22;8134;49.552;7.632;2022-08-23T16:52:19;31.00;52.30
16060;DHT22;8134;49.552;7.632;2022-08-23T16:54:58;30.90;52.20
16060;DHT22;8134;49.552;7.632;2022-08-23T16:58:13;30.80;52.40
16060;DHT22;8134;49.552;7.632;2022-08-23T17:01:14;30.70;53.10
16060;DHT22;8134;49.552;7.632;2022-08-23T17:04:17;30.60;53.00
16060;DHT22;8134;49.552;7.632;2022-08-23T17:06:49;30.40;52.60
16060;DHT22;8134;49.552;7.632;2022-08-23T17:09:38;30.40;53.60
16060;DHT22;8134;49.552;7.632;2022-08-23T17:12:37;30.30;53.10
16060;DHT22;8134;49.552;7.632;2022-08-23T17:15:45;30.20;53.40
16060;DHT22;8134;49.552;7.632;2022-08-23T17:18:55;30.20;53.30
16060;DHT22;8134;49.552;7.632;2022-08-23T17:40:08;29.60;53.90
16060;DHT22;8134;49.552;7.632;2022-08-23T17:42:35;29.60;54.90
16060;DHT22;8134;49.552;7.632;2022-08-23T17:57:47;29.10;57.80
16060;DHT22;8134;49.552;7.632;2022-08-23T18:16:22;27.90;61.50
16060;DHT22;8134;49.552;7.632;2022-08-23T19:21:02;25.10;68.90
16060;DHT22;8134;49.552;7.632;2022-08-23T19:33:30;24.60;70.20
16060;DHT22;8134;49.552;7.632;2022-08-23T19:35:56;24.60;70.50
16060;DHT22;8134;49.552;7.632;2022-08-23T19:41:40;24.50;70.60
16060;DHT22;8134;49.552;7.632;2022-08-23T19:47:29;24.30;71.40
16060;DHT22;8134;49.552;7.632;2022-08-23T19:59:38;24.00;72.10
16060;DHT22;8134;49.552;7.632;2022-08-23T20:02:04;23.90;72.00
16060;DHT22;8134;49.552;7.632;2022-08-23T20:04:31;23.80;72.40
16060;DHT22;8134;49.552;7.632;2022-08-23T20:06:59;23.70;72.70
16060;DHT22;8134;49.552;7.632;2022-08-23T20:09:44;23.70;72.80
16060;DHT22;8134;49.552;7.632;2022-08-23T20:12:10;23.60;72.50
16060;DHT22;8134;49.552;7.632;2022-08-23T20:27:02;23.30;74.30
16060;DHT22;8134;49.552;7.632;2022-08-23T20:29:30;23.30;74.10
16060;DHT22;8134;49.552;7.632;2022-08-23T20:38:43;23.20;74.50
16060;DHT22;8134;49.552;7.632;2022-08-23T20:56:50;22.60;76.00
